createdAt,value
2022-09-07T00:01:54.960Z,23.77
2022-09-07T00:04:22.677Z,23.69
2022-09-07T00:06:50.429Z,23.63
2022-09-07T00:09:18.100Z,23.54
2022-09-07T00:11:46.516Z,23.47
2022-09-07T00:14:14.364Z,23.43
2022-09-07T00:16:42.274Z,23.32
2022-09-07T00:19:11.382Z,23.14
2022-09-07T00:21:39.117Z,22.95
2022-09-07T00:24:07.096Z,22.73
2022-09-07T00:26:35.189Z,22.53
2022-09-07T00:29:04.508Z,22.38
2022-09-07T00:31:32.848Z,22.25
2022-09-07T00:34:01.945Z,22.11
2022-09-07T00:36:31.293Z,22.05
2022-09-07T00:38:59.618Z,21.97
2022-09-07T00:41:27.381Z,21.92
2022-09-07T00:43:56.860Z,21.89
2022-09-07T00:46:26.666Z,21.85
2022-09-07T00:48:58.166Z,21.84
2022-09-07T00:51:28.950Z,21.82
2022-09-07T00:54:00.897Z,21.87
2022-09-07T00:56:32.637Z,21.86
2022-09-07T00:59:00.585Z,21.85
2022-09-07T01:01:28.517Z,21.85
2022-09-07T01:03:58.531Z,21.85
2022-09-07T01:06:29.004Z,21.85
2022-09-07T01:09:02.604Z,21.88
2022-09-07T01:11:32.365Z,21.88
2022-09-07T01:13:59.981Z,21.89
2022-09-07T01:16:37.806Z,21.94
2022-09-07T01:19:21.753Z,21.95
2022-09-07T01:21:59.623Z,21.97
2022-09-07T01:24:39.889Z,21.97
2022-09-07T01:27:52.146Z,21.97
2022-09-07T01:30:23.147Z,21.96
2022-09-07T01:33:01.916Z,21.99
2022-09-07T01:35:35.202Z,21.97
2022-09-07T01:38:07.859Z,21.99
2022-09-07T01:40:42.046Z,21.98
2022-09-07T01:43:13.216Z,21.90
2022-09-07T01:45:44.049Z,21.85
2022-09-07T01:48:15.980Z,21.83
2022-09-07T01:50:48.006Z,21.79
2022-09-07T01:53:17.746Z,21.77
2022-09-07T01:55:48.102Z,21.78
2022-09-07T01:58:19.622Z,21.79
2022-09-07T02:00:52.216Z,21.79
2022-09-07T02:03:23.925Z,21.78
2022-09-07T02:05:58.402Z,21.76
2022-09-07T02:08:28.704Z,21.70
2022-09-07T02:11:00.534Z,21.63
2022-09-07T02:13:32.306Z,21.66
2022-09-07T02:16:03.172Z,21.64
2022-09-07T02:18:34.578Z,21.63
2022-09-07T02:21:04.065Z,21.62
2022-09-07T02:23:35.025Z,21.60
2022-09-07T02:26:04.948Z,21.59
2022-09-07T02:28:35.341Z,21.58
2022-09-07T02:31:04.551Z,21.57
2022-09-07T02:33:32.713Z,21.56
2022-09-07T02:36:01.716Z,21.56
2022-09-07T02:38:29.508Z,21.54
2022-09-07T02:40:59.355Z,21.54
2022-09-07T02:43:27.632Z,21.50
2022-09-07T02:46:10.250Z,21.45
2022-09-07T02:48:45.112Z,21.44
2022-09-07T02:51:16.915Z,21.42
2022-09-07T02:53:54.624Z,21.40
2022-09-07T02:56:33.448Z,21.37
2022-09-07T02:59:06.581Z,21.36
2022-09-07T03:01:38.096Z,21.34
2022-09-07T03:04:09.128Z,21.31
2022-09-07T03:06:40.716Z,21.28
2022-09-07T03:09:11.560Z,21.24
2022-09-07T03:11:39.252Z,21.19
2022-09-07T03:14:18.143Z,21.18
2022-09-07T03:16:48.100Z,21.12
2022-09-07T03:19:15.749Z,21.08
2022-09-07T03:21:43.569Z,21.08
2022-09-07T03:24:11.266Z,21.09
2022-09-07T03:26:41.822Z,21.12
2022-09-07T03:29:09.530Z,21.12
2022-09-07T03:31:38.581Z,21.12
2022-09-07T03:34:07.977Z,21.14
2022-09-07T03:36:36.012Z,21.10
2022-09-07T03:39:04.341Z,21.08
2022-09-07T03:41:32.017Z,21.07
2022-09-07T03:44:03.857Z,21.12
2022-09-07T03:46:31.609Z,21.09
2022-09-07T03:48:59.290Z,21.08
2022-09-07T03:51:28.512Z,21.10
2022-09-07T03:53:56.330Z,21.07
2022-09-07T03:56:25.813Z,21.07
2022-09-07T03:58:54.990Z,21.02
2022-09-07T04:01:24.136Z,21.02
2022-09-07T04:03:52.461Z,20.99
2022-09-07T04:06:20.628Z,20.94
2022-09-07T04:08:49.633Z,20.92
2022-09-07T04:11:18.753Z,20.87
2022-09-07T04:13:46.873Z,20.81
2022-09-07T04:16:17.103Z,20.74
2022-09-07T04:18:44.869Z,20.71
2022-09-07T04:21:12.726Z,20.72
2022-09-07T04:23:40.431Z,20.69
2022-09-07T04:26:15.005Z,20.68
2022-09-07T04:28:42.737Z,20.62
2022-09-07T04:31:10.506Z,20.61
2022-09-07T04:33:38.352Z,20.58
2022-09-07T04:36:06.266Z,20.56
2022-09-07T04:38:33.998Z,20.53
2022-09-07T04:41:02.490Z,20.52
2022-09-07T04:43:31.639Z,20.51
2022-09-07T04:45:59.584Z,20.49
2022-09-07T04:48:27.492Z,20.47
2022-09-07T04:50:55.126Z,20.46
2022-09-07T04:53:22.784Z,20.44
2022-09-07T04:55:50.489Z,20.40
2022-09-07T04:58:18.199Z,20.37
2022-09-07T05:00:47.351Z,20.39
2022-09-07T05:03:15.047Z,20.33
2022-09-07T05:05:42.677Z,20.34
2022-09-07T05:08:10.335Z,20.29
2022-09-07T05:10:38.072Z,20.28
2022-09-07T05:13:05.865Z,20.27
2022-09-07T05:15:33.740Z,20.25
2022-09-07T05:18:03.715Z,20.26
2022-09-07T05:20:31.410Z,20.24
2022-09-07T05:22:59.544Z,20.24
2022-09-07T05:25:29.014Z,20.24
2022-09-07T05:27:56.826Z,20.25
2022-09-07T05:33:13.606Z,20.22
2022-09-07T05:35:41.214Z,20.21
2022-09-07T05:38:08.896Z,20.19
2022-09-07T05:40:40.577Z,20.16
2022-09-07T05:43:09.930Z,20.16
2022-09-07T05:45:37.657Z,20.17
2022-09-07T05:48:05.438Z,20.17
2022-09-07T05:50:34.480Z,20.21
2022-09-07T05:53:02.315Z,20.19
2022-09-07T05:55:32.142Z,20.21
2022-09-07T05:57:59.796Z,20.18
2022-09-07T06:00:27.666Z,20.15
2022-09-07T06:02:55.673Z,20.12
2022-09-07T06:05:23.452Z,20.13
2022-09-07T06:07:53.097Z,20.15
2022-09-07T06:13:08.534Z,20.11
2022-09-07T06:15:36.190Z,20.11
2022-09-07T06:18:03.848Z,20.06
2022-09-07T06:20:31.589Z,20.08
2022-09-07T06:23:01.209Z,20.08
2022-09-07T06:25:28.825Z,20.05
2022-09-07T06:27:56.542Z,20.10
2022-09-07T06:30:25.283Z,20.70
2022-09-07T06:32:52.991Z,20.37
2022-09-07T06:35:20.474Z,20.16
2022-09-07T06:37:48.170Z,20.22
2022-09-07T06:40:17.282Z,20.23
2022-09-07T06:42:44.751Z,20.06
2022-09-07T06:45:12.874Z,20.12
2022-09-07T06:47:40.808Z,20.16
2022-09-07T06:50:09.872Z,20.18
2022-09-07T06:55:29.039Z,20.23
2022-09-07T06:57:56.789Z,20.86
2022-09-07T07:00:24.554Z,20.57
2022-09-07T07:02:52.321Z,20.47
2022-09-07T07:05:19.855Z,20.28
2022-09-07T07:07:47.461Z,20.18
2022-09-07T07:10:15.222Z,20.30
2022-09-07T07:15:11.300Z,21.09
2022-09-07T07:17:38.982Z,21.18
2022-09-07T07:20:07.605Z,20.85
2022-09-07T07:22:50.724Z,20.71
2022-09-07T07:25:18.419Z,20.59
2022-09-07T07:27:47.986Z,20.54
2022-09-07T07:30:16.488Z,20.49
2022-09-07T07:32:45.139Z,20.48
2022-09-07T07:35:12.939Z,20.29
2022-09-07T07:37:40.410Z,20.21
2022-09-07T07:40:17.561Z,20.17
2022-09-07T07:42:48.803Z,20.14
2022-09-07T07:48:04.587Z,20.24
2022-09-07T07:50:33.165Z,20.31
2022-09-07T07:55:49.714Z,21.16
2022-09-07T07:58:19.053Z,21.29
2022-09-07T08:00:55.867Z,21.42
2022-09-07T08:03:25.162Z,21.08
2022-09-07T08:05:53.771Z,20.98
2022-09-07T08:08:22.018Z,20.96
2022-09-07T08:10:49.955Z,20.92
2022-09-07T08:13:19.156Z,20.92
2022-09-07T08:15:47.069Z,20.74
2022-09-07T08:18:14.863Z,20.62
2022-09-07T08:20:42.454Z,20.56
2022-09-07T08:23:10.658Z,20.48
2022-09-07T08:25:38.277Z,20.44
2022-09-07T08:28:05.828Z,20.41
2022-09-07T08:30:35.085Z,20.41
2022-09-07T08:33:02.803Z,20.41
2022-09-07T08:35:30.318Z,20.41
2022-09-07T08:37:57.787Z,20.38
2022-09-07T08:40:25.632Z,20.38
2022-09-07T08:42:58.942Z,20.37
2022-09-07T08:45:27.530Z,20.37
2022-09-07T08:47:56.384Z,20.38
2022-09-07T08:50:25.269Z,20.39
2022-09-07T08:52:53.463Z,20.40
2022-09-07T08:55:22.144Z,20.40
2022-09-07T08:57:50.653Z,20.40
2022-09-07T09:00:18.899Z,20.35
2022-09-07T09:04:27.510Z,20.35
2022-09-07T09:06:59.351Z,20.37
2022-09-07T09:09:29.309Z,20.39
2022-09-07T09:11:58.456Z,20.39
2022-09-07T09:14:28.306Z,20.37
2022-09-07T09:16:56.342Z,20.36
2022-09-07T09:19:31.784Z,20.34
2022-09-07T09:22:02.277Z,20.31
2022-09-07T09:24:30.133Z,20.33
2022-09-07T09:26:57.676Z,20.32
2022-09-07T09:29:25.087Z,20.35
2022-09-07T09:31:53.488Z,20.38
2022-09-07T09:34:25.492Z,20.43
2022-09-07T09:36:56.736Z,20.49
2022-09-07T09:39:31.805Z,20.58
2022-09-07T09:42:00.136Z,20.62
2022-09-07T09:44:28.306Z,20.62
2022-09-07T09:49:45.478Z,20.67
2022-09-07T09:52:39.077Z,20.68
2022-09-07T09:55:33.292Z,20.71
2022-09-07T10:01:21.265Z,20.70
2022-09-07T10:06:18.015Z,20.70
2022-09-07T10:08:52.288Z,20.71
2022-09-07T10:11:19.853Z,20.70
2022-09-07T10:13:55.354Z,20.70
2022-09-07T10:16:32.861Z,20.71
2022-09-07T10:19:00.361Z,20.70
2022-09-07T10:21:28.162Z,20.68
2022-09-07T10:23:58.224Z,20.70
2022-09-07T10:26:30.305Z,20.75
2022-09-07T10:29:07.998Z,20.83
2022-09-07T10:31:36.686Z,20.90
2022-09-07T10:36:53.872Z,21.03
2022-09-07T10:39:23.819Z,21.07
2022-09-07T10:41:53.965Z,21.10
2022-09-07T10:44:22.285Z,21.17
2022-09-07T10:46:57.984Z,21.25
2022-09-07T10:49:27.805Z,21.37
2022-09-07T10:51:59.381Z,21.49
2022-09-07T10:54:30.717Z,21.54
2022-09-07T10:57:00.739Z,21.57
2022-09-07T11:02:23.334Z,21.63
2022-09-07T11:04:54.039Z,21.69
2022-09-07T11:07:25.158Z,21.74
2022-09-07T11:09:55.179Z,21.79
2022-09-07T11:12:27.837Z,21.85
2022-09-07T11:14:57.824Z,21.90
2022-09-07T11:17:26.167Z,21.92
2022-09-07T11:19:54.034Z,21.96
2022-09-07T11:22:24.037Z,22.00
2022-09-07T11:27:43.694Z,22.09
2022-09-07T11:30:16.505Z,22.12
2022-09-07T11:32:45.497Z,22.14
2022-09-07T11:35:16.369Z,22.10
2022-09-07T11:37:46.447Z,22.06
2022-09-07T11:40:21.443Z,22.20
2022-09-07T11:42:55.854Z,22.73
2022-09-07T11:45:28.582Z,22.88
2022-09-07T11:47:57.183Z,22.52
2022-09-07T11:50:24.800Z,22.38
2022-09-07T11:52:55.083Z,22.28
2022-09-07T11:55:23.851Z,22.22
2022-09-07T11:57:56.934Z,22.20
2022-09-07T12:00:24.938Z,22.20
2022-09-07T12:03:01.175Z,22.22
2022-09-07T12:05:32.920Z,22.20
2022-09-07T12:08:02.929Z,22.19
2022-09-07T12:10:36.031Z,22.19
2022-09-07T12:13:07.866Z,22.19
2022-09-07T12:15:37.250Z,22.23
2022-09-07T12:18:13.909Z,22.31
2022-09-07T12:20:41.728Z,22.43
2022-09-07T12:23:19.375Z,22.58
2022-09-07T12:25:47.494Z,22.66
2022-09-07T12:28:21.860Z,22.67
2022-09-07T12:30:53.893Z,22.68
2022-09-07T12:33:25.262Z,22.71
2022-09-07T12:35:54.797Z,22.70
2022-09-07T12:38:40.732Z,22.67
2022-09-07T12:41:21.657Z,22.63
2022-09-07T12:44:08.273Z,22.55
2022-09-07T12:46:46.660Z,22.50
2022-09-07T12:49:18.235Z,22.46
2022-09-07T12:52:13.899Z,22.47
2022-09-07T12:54:35.036Z,22.50
2022-09-07T12:59:55.476Z,22.64
2022-09-07T13:02:28.180Z,22.74
2022-09-07T13:05:01.574Z,22.81
2022-09-07T13:07:43.901Z,22.82
2022-09-07T13:10:20.301Z,22.82
2022-09-07T13:14:08.469Z,23.47
2022-09-07T13:20:03.842Z,23.69
2022-09-07T13:23:11.869Z,23.78
2022-09-07T13:25:46.027Z,23.84
2022-09-07T13:28:25.239Z,23.89
2022-09-07T13:31:03.287Z,23.91
2022-09-07T13:33:48.315Z,23.98
2022-09-07T13:36:26.307Z,23.96
2022-09-07T13:38:55.056Z,24.00
2022-09-07T13:41:24.214Z,24.10
2022-09-07T13:43:54.606Z,24.18
2022-09-07T13:46:35.802Z,24.32
2022-09-07T13:49:08.097Z,24.41
2022-09-07T13:51:40.917Z,24.47
2022-09-07T13:54:15.505Z,24.49
2022-09-07T13:56:50.306Z,24.50
2022-09-07T13:59:20.996Z,24.52
2022-09-07T14:01:50.530Z,24.55
2022-09-07T14:04:24.300Z,24.62
2022-09-07T14:06:51.921Z,24.73
2022-09-07T14:09:22.426Z,24.75
2022-09-07T14:11:52.606Z,24.86
2022-09-07T14:14:21.992Z,24.93
2022-09-07T14:16:55.808Z,24.99
2022-09-07T14:19:25.692Z,25.06
2022-09-07T14:21:58.107Z,25.14
2022-09-07T14:24:32.148Z,25.21
2022-09-07T14:27:00.622Z,25.27
2022-09-07T14:29:31.136Z,25.26
2022-09-07T14:32:01.787Z,25.20
2022-09-07T14:34:32.563Z,25.11
2022-09-07T14:37:03.424Z,25.11
2022-09-07T14:39:31.747Z,25.10
2022-09-07T14:41:59.865Z,25.11
2022-09-07T14:44:30.035Z,25.15
2022-09-07T14:47:00.330Z,25.20
2022-09-07T14:49:28.881Z,25.15
2022-09-07T14:51:56.969Z,25.13
2022-09-07T14:54:27.772Z,25.06
2022-09-07T14:57:27.352Z,24.96
2022-09-07T14:59:57.219Z,24.88
2022-09-07T15:02:33.202Z,24.80
2022-09-07T15:05:19.028Z,24.81
2022-09-07T15:07:47.764Z,24.76
2022-09-07T15:10:17.363Z,24.75
2022-09-07T15:12:45.051Z,24.73
2022-09-07T15:15:26.148Z,24.71
2022-09-07T15:18:01.859Z,24.70
2022-09-07T15:20:36.029Z,24.71
2022-09-07T15:23:04.988Z,24.73
2022-09-07T15:25:33.002Z,24.75
2022-09-07T15:28:00.622Z,24.79
2022-09-07T15:30:28.517Z,24.80
2022-09-07T15:32:57.844Z,24.81
2022-09-07T15:35:25.759Z,24.83
2022-09-07T15:38:01.807Z,24.82
2022-09-07T15:40:33.286Z,24.77
2022-09-07T15:43:03.057Z,24.80
2022-09-07T15:45:34.537Z,24.76
2022-09-07T15:48:04.990Z,24.72
2022-09-07T15:50:32.981Z,24.71
2022-09-07T15:53:01.759Z,24.71
2022-09-07T15:55:29.535Z,24.72
2022-09-07T15:58:10.752Z,24.68
2022-09-07T16:00:39.175Z,24.63
2022-09-07T16:03:08.993Z,24.66
2022-09-07T16:05:39.771Z,24.65
2022-09-07T16:11:04.307Z,24.65
2022-09-07T16:13:32.567Z,24.64
2022-09-07T16:16:00.401Z,24.66
2022-09-07T16:18:32.851Z,24.65
2022-09-07T16:21:05.853Z,24.65
2022-09-07T16:23:33.601Z,24.62
2022-09-07T16:26:02.697Z,24.51
2022-09-07T16:28:30.670Z,24.60
2022-09-07T16:30:59.169Z,24.60
2022-09-07T16:33:36.000Z,24.60
2022-09-07T16:36:09.164Z,24.57
2022-09-07T16:38:45.478Z,24.59
2022-09-07T16:41:14.826Z,24.57
2022-09-07T16:43:42.699Z,24.59
2022-09-07T16:46:13.443Z,24.59
2022-09-07T16:48:41.394Z,24.60
2022-09-07T16:51:11.913Z,24.60
2022-09-07T16:53:40.030Z,24.61
2022-09-07T16:56:09.570Z,24.63
2022-09-07T16:58:38.623Z,24.65
2022-09-07T17:01:06.709Z,24.67
2022-09-07T17:03:34.669Z,24.66
2022-09-07T17:06:02.631Z,24.66
2022-09-07T17:08:31.684Z,24.63
2022-09-07T17:11:00.711Z,24.57
2022-09-07T17:13:28.781Z,24.61
2022-09-07T17:16:00.010Z,24.62
2022-09-07T17:21:16.078Z,24.58
2022-09-07T17:23:51.912Z,24.58
2022-09-07T17:26:22.441Z,24.56
2022-09-07T17:28:51.786Z,24.56
2022-09-07T17:34:08.830Z,24.50
2022-09-07T17:36:36.487Z,24.48
2022-09-07T17:39:20.945Z,24.47
2022-09-07T17:41:52.753Z,24.43
2022-09-07T17:44:21.465Z,24.37
2022-09-07T17:46:49.157Z,24.35
2022-09-07T17:49:17.727Z,24.32
2022-09-07T17:51:45.735Z,24.29
2022-09-07T17:54:17.442Z,24.27
2022-09-07T17:56:45.783Z,24.21
2022-09-07T18:02:01.488Z,24.17
2022-09-07T18:04:29.189Z,24.14
2022-09-07T18:06:56.818Z,24.12
2022-09-07T18:09:25.903Z,24.10
2022-09-07T18:11:53.514Z,24.06
2022-09-07T18:14:21.160Z,24.02
2022-09-07T18:16:50.308Z,24.01
2022-09-07T18:19:18.641Z,23.96
2022-09-07T18:21:47.672Z,23.94
2022-09-07T18:24:17.891Z,23.91
2022-09-07T18:26:51.541Z,23.87
2022-09-07T18:29:31.174Z,23.83
2022-09-07T18:32:00.781Z,23.82
2022-09-07T18:34:30.715Z,23.77
2022-09-07T18:36:59.146Z,23.76
2022-09-07T18:39:27.202Z,23.75
2022-09-07T18:41:56.336Z,23.73
2022-09-07T18:47:21.769Z,23.68
2022-09-07T18:49:50.946Z,23.64
2022-09-07T18:55:07.151Z,23.58
2022-09-07T18:57:36.684Z,23.55
2022-09-07T19:00:05.445Z,23.50
2022-09-07T19:02:33.394Z,23.51
2022-09-07T19:07:48.821Z,23.48
2022-09-07T19:10:17.638Z,23.47
2022-09-07T19:12:46.720Z,23.44
2022-09-07T19:15:14.913Z,23.45
2022-09-07T19:17:42.620Z,23.44
2022-09-07T19:20:11.055Z,23.44
2022-09-07T19:22:38.965Z,23.43
2022-09-07T19:25:07.409Z,23.43
2022-09-07T19:27:35.001Z,23.41
2022-09-07T19:30:04.425Z,23.41
2022-09-07T19:32:32.118Z,23.39
2022-09-07T19:34:59.704Z,23.37
2022-09-07T19:37:28.967Z,23.35
2022-09-07T19:39:56.756Z,23.33
2022-09-07T19:42:25.375Z,23.33
2022-09-07T19:44:54.070Z,23.29
2022-09-07T19:47:23.272Z,23.29
2022-09-07T19:49:52.239Z,23.22
2022-09-07T19:52:19.885Z,23.19
2022-09-07T19:54:47.593Z,23.16
2022-09-07T19:57:15.210Z,23.13
2022-09-07T19:59:45.580Z,23.10
2022-09-07T20:02:13.369Z,23.07
2022-09-07T20:04:42.492Z,23.05
2022-09-07T20:07:10.154Z,23.02
2022-09-07T20:09:37.835Z,23.00
2022-09-07T20:12:06.751Z,23.01
2022-09-07T20:14:34.375Z,23.00
2022-09-07T20:17:02.423Z,23.00
2022-09-07T20:19:30.066Z,22.99
2022-09-07T20:21:59.198Z,22.96
2022-09-07T20:24:26.841Z,22.92
2022-09-07T20:26:54.527Z,22.89
2022-09-07T20:29:29.481Z,22.88
2022-09-07T20:31:58.255Z,22.87
2022-09-07T20:34:26.203Z,22.85
2022-09-07T20:36:54.355Z,22.85
2022-09-07T20:39:23.901Z,22.85
2022-09-07T20:41:51.520Z,22.85
2022-09-07T20:44:19.364Z,22.83
2022-09-07T20:46:47.082Z,22.81
2022-09-07T20:49:14.785Z,22.80
2022-09-07T20:51:42.456Z,22.80
2022-09-07T20:54:10.301Z,22.78
2022-09-07T20:56:39.323Z,22.74
2022-09-07T20:59:07.046Z,22.72
2022-09-07T21:01:35.088Z,22.72
2022-09-07T21:04:03.948Z,22.71
2022-09-07T21:06:32.638Z,22.70
2022-09-07T21:09:00.887Z,22.69
2022-09-07T21:11:30.129Z,22.69
2022-09-07T21:14:00.540Z,22.67
2022-09-07T21:16:28.856Z,22.65
2022-09-07T21:18:58.749Z,22.63
2022-09-07T21:21:27.503Z,22.54
2022-09-07T21:23:56.658Z,22.55
2022-09-07T21:26:24.942Z,22.51
2022-09-07T21:28:56.810Z,22.47
2022-09-07T21:31:26.205Z,22.45
2022-09-07T21:33:57.698Z,22.47
2022-09-07T21:36:25.905Z,22.45
2022-09-07T21:38:54.244Z,22.44
2022-09-07T21:41:23.921Z,22.37
2022-09-07T21:43:55.685Z,22.39
2022-09-07T21:46:23.535Z,22.36
2022-09-07T21:48:52.710Z,22.34
2022-09-07T21:51:20.456Z,22.30
2022-09-07T21:53:52.006Z,22.26
2022-09-07T21:56:19.974Z,22.24
2022-09-07T21:58:47.785Z,22.23
2022-09-07T22:01:17.380Z,22.22
2022-09-07T22:03:46.126Z,22.20
2022-09-07T22:06:15.720Z,22.17
2022-09-07T22:08:44.927Z,22.15
2022-09-07T22:11:14.757Z,22.15
2022-09-07T22:13:42.939Z,22.12
2022-09-07T22:16:11.567Z,22.11
2022-09-07T22:18:40.204Z,22.09
2022-09-07T22:21:09.549Z,22.08
2022-09-07T22:23:39.962Z,22.04
2022-09-07T22:26:08.039Z,22.00
2022-09-07T22:28:36.072Z,21.98
2022-09-07T22:31:11.727Z,21.96
2022-09-07T22:33:39.451Z,21.91
2022-09-07T22:36:12.195Z,21.87
2022-09-07T22:38:41.406Z,21.84
2022-09-07T22:41:10.182Z,21.81
2022-09-07T22:43:38.345Z,21.79
2022-09-07T22:46:06.811Z,21.79
2022-09-07T22:48:34.481Z,21.73
2022-09-07T22:51:02.831Z,21.73
2022-09-07T22:53:32.015Z,21.70
2022-09-07T22:56:01.673Z,21.71
2022-09-07T22:58:29.539Z,21.72
2022-09-07T23:00:59.275Z,21.69
2022-09-07T23:03:27.080Z,21.68
2022-09-07T23:05:54.924Z,21.67
2022-09-07T23:08:22.750Z,21.67
2022-09-07T23:10:50.348Z,21.65
2022-09-07T23:13:19.433Z,21.64
2022-09-07T23:15:48.132Z,21.62
2022-09-07T23:18:16.394Z,21.58
2022-09-07T23:20:44.058Z,21.55
2022-09-07T23:23:12.037Z,21.51
2022-09-07T23:25:40.628Z,21.50
2022-09-07T23:28:09.814Z,21.51
2022-09-07T23:30:40.405Z,21.53
2022-09-07T23:33:08.304Z,21.55
2022-09-07T23:35:35.921Z,21.57
2022-09-07T23:38:03.509Z,21.55
2022-09-07T23:40:32.617Z,21.57
2022-09-07T23:43:00.408Z,21.56
2022-09-07T23:45:28.180Z,21.55
2022-09-07T23:47:57.253Z,21.53
2022-09-07T23:50:24.933Z,21.52
2022-09-07T23:52:52.602Z,21.50
2022-09-07T23:55:20.211Z,21.49
2022-09-07T23:57:49.071Z,21.49
